Time;durP1;ratioP1;P1;durP2;ratioP2;P2;SDS_P1;SDS_P2;PMS_P1;PMS_P2;Temp;Humidity;BMP_temperature;BMP_pressure;BME280_temperature;BME280_humidity;BME280_pressure;Samples;Min_cycle;Max_cycle;Signal;HPM_P1;HPM_P2
2021/03/26 00:01:10;;;;;;;13.43;9.37;;;4.90;95.30;;;;;;5005486;28;20456;-61
2021/03/26 00:03:39;;;;;;;15.13;8.47;;;4.90;95.00;;;;;;5007517;28;20434;-61
2021/03/26 00:06:15;;;;;;;22.83;10.57;;;4.90;95.00;;;;;;4996698;28;21245;-60
2021/03/26 00:08:44;;;;;;;21.27;9.47;;;4.90;95.00;;;;;;5003212;28;20803;-60
2021/03/26 00:11:11;;;;;;;18.37;9.80;;;4.90;95.00;;;;;;5001453;28;20506;-60
2021/03/26 00:13:38;;;;;;;17.00;8.60;;;4.90;94.90;;;;;;5004791;28;20517;-60
2021/03/26 00:16:07;;;;;;;20.87;10.67;;;4.90;95.00;;;;;;5005262;28;20533;-61
2021/03/26 00:18:33;;;;;;;19.57;9.63;;;4.90;95.00;;;;;;5003987;28;20440;-60
2021/03/26 00:20:59;;;;;;;23.43;9.23;;;4.80;95.20;;;;;;5000849;28;20449;-60
2021/03/26 00:23:25;;;;;;;15.53;9.60;;;4.80;95.20;;;;;;5008629;28;20205;-60
2021/03/26 00:25:51;;;;;;;16.30;9.70;;;4.80;95.10;;;;;;5002244;28;20820;-60
2021/03/26 00:28:20;;;;;;;14.47;8.53;;;4.80;95.20;;;;;;5006756;28;20431;-60
2021/03/26 00:30:45;;;;;;;14.47;8.80;;;4.80;95.20;;;;;;5003850;28;20437;-61
2021/03/26 00:33:11;;;;;;;19.40;9.10;;;4.80;95.30;;;;;;5009509;28;20485;-60
2021/03/26 00:35:37;;;;;;;17.37;9.27;;;4.80;95.40;;;;;;5007163;28;20283;-61
2021/03/26 00:38:05;;;;;;;16.60;8.40;;;4.80;95.30;;;;;;5003173;28;20444;-60
2021/03/26 00:40:31;;;;;;;16.70;9.30;;;4.80;95.50;;;;;;4997758;28;20451;-61
2021/03/26 00:42:57;;;;;;;17.03;8.73;;;4.80;95.50;;;;;;5007499;28;20943;-60
2021/03/26 00:45:27;;;;;;;18.30;9.03;;;4.80;95.50;;;;;;5007575;28;20452;-60
2021/03/26 00:47:52;;;;;;;18.07;9.70;;;4.80;95.60;;;;;;4999659;28;20242;-61
2021/03/26 00:50:38;;;;;;;14.80;8.53;;;4.80;95.60;;;;;;5008773;28;20912;-62
2021/03/26 00:53:23;;;;;;;17.30;9.90;;;4.70;95.60;;;;;;5013496;28;20217;-62
2021/03/26 00:55:50;;;;;;;14.53;8.60;;;4.70;95.80;;;;;;5003778;28;21023;-60
2021/03/26 00:58:17;;;;;;;19.20;8.70;;;4.80;95.90;;;;;;5002609;28;20438;-64
2021/03/26 01:00:43;;;;;;;14.53;9.70;;;4.80;96.00;;;;;;5011383;28;20443;-60
2021/03/26 01:03:10;;;;;;;17.43;10.00;;;4.80;95.90;;;;;;5004636;28;20518;-61
2021/03/26 01:05:40;;;;;;;19.03;10.20;;;4.70;95.90;;;;;;5006677;28;20199;-61
2021/03/26 01:08:06;;;;;;;16.70;10.13;;;4.70;95.90;;;;;;5004890;28;20462;-61
2021/03/26 01:10:36;;;;;;;17.43;9.70;;;4.70;96.10;;;;;;5008395;28;20840;-62
2021/03/26 01:13:04;;;;;;;17.90;9.90;;;4.70;96.10;;;;;;5003924;28;20687;-62
2021/03/26 01:15:30;;;;;;;16.53;9.43;;;4.70;96.30;;;;;;5004092;28;20442;-61
2021/03/26 01:17:58;;;;;;;15.73;9.10;;;4.70;96.20;;;;;;5011817;28;20800;-62
2021/03/26 01:20:38;;;;;;;18.90;9.80;;;4.60;96.20;;;;;;5007230;28;20439;-62
2021/03/26 01:23:07;;;;;;;20.40;10.10;;;4.70;96.30;;;;;;5006189;28;20511;-61
2021/03/26 01:25:40;;;;;;;18.77;9.60;;;4.70;96.40;;;;;;5007395;28;20824;-61
2021/03/26 01:28:07;;;;;;;14.03;9.10;;;4.70;96.40;;;;;;5004242;28;22248;-61
2021/03/26 01:30:34;;;;;;;17.90;10.30;;;4.70;96.30;;;;;;5011658;28;20561;-62
2021/03/26 01:33:02;;;;;;;15.43;9.33;;;4.60;96.40;;;;;;5006441;28;20438;-63
2021/03/26 01:35:32;;;;;;;19.60;10.50;;;4.60;96.50;;;;;;5011463;28;21015;-61
2021/03/26 01:37:57;;;;;;;20.80;11.27;;;4.60;96.40;;;;;;5010661;28;20430;-62
2021/03/26 01:40:29;;;;;;;17.90;10.37;;;4.60;96.30;;;;;;5007574;28;20431;-61
2021/03/26 01:43:20;;;;;;;18.73;10.40;;;4.60;96.20;;;;;;5007655;28;20808;-62
2021/03/26 01:45:46;;;;;;;20.70;10.77;;;4.60;96.30;;;;;;5005231;28;20621;-62
2021/03/26 01:48:19;;;;;;;14.50;9.50;;;4.60;96.40;;;;;;5007214;28;20408;-62
2021/03/26 01:50:44;;;;;;;19.27;9.07;;;4.50;96.40;;;;;;5009914;28;20414;-61
2021/03/26 01:53:11;;;;;;;25.10;10.70;;;4.40;96.40;;;;;;5011498;28;20419;-61
2021/03/26 01:55:42;;;;;;;15.37;9.30;;;4.50;96.50;;;;;;5008092;28;20228;-61
2021/03/26 01:58:11;;;;;;;16.30;9.90;;;4.40;96.60;;;;;;5006145;28;20434;-62
2021/03/26 02:00:43;;;;;;;21.43;10.80;;;4.40;96.60;;;;;;5005742;28;20455;-62
2021/03/26 02:03:20;;;;;;;22.43;10.10;;;4.40;96.60;;;;;;5003981;28;20519;-61
2021/03/26 02:05:47;;;;;;;15.93;10.43;;;4.40;96.60;;;;;;5003132;28;20462;-62
2021/03/26 02:08:22;;;;;;;19.63;11.00;;;4.30;96.60;;;;;;5008583;28;20601;-59
2021/03/26 02:10:48;;;;;;;17.97;11.03;;;4.20;96.80;;;;;;5004273;28;20444;-60
2021/03/26 02:13:28;;;;;;;15.37;9.70;;;4.20;96.70;;;;;;5003108;28;20433;-60
2021/03/26 02:15:56;;;;;;;20.07;10.13;;;4.20;96.80;;;;;;5004848;28;20447;-61
2021/03/26 02:18:28;;;;;;;18.33;10.23;;;4.20;97.00;;;;;;5010899;28;20432;-61
2021/03/26 02:21:01;;;;;;;17.87;11.23;;;4.10;96.90;;;;;;5004981;28;20518;-60
2021/03/26 02:23:28;;;;;;;17.60;9.33;;;4.10;96.90;;;;;;5004940;28;20503;-61
2021/03/26 02:25:56;;;;;;;22.80;10.30;;;4.10;97.10;;;;;;5002998;28;20990;-62
2021/03/26 02:28:22;;;;;;;18.80;10.07;;;4.10;97.10;;;;;;5003018;28;20431;-61
2021/03/26 02:30:59;;;;;;;20.17;10.20;;;4.00;97.30;;;;;;5006765;28;20963;-61
2021/03/26 02:33:25;;;;;;;17.97;10.73;;;4.00;97.50;;;;;;4990765;28;20444;-63
2021/03/26 02:36:11;;;;;;;16.40;9.50;;;4.00;97.60;;;;;;5002596;28;20459;-60
2021/03/26 02:38:38;;;;;;;19.30;10.40;;;4.00;97.70;;;;;;5000475;28;20443;-62
2021/03/26 02:41:33;;;;;;;22.13;10.07;;;4.10;97.90;;;;;;5003764;28;20555;-61
2021/03/26 02:44:24;;;;;;;15.67;9.50;;;4.10;97.90;;;;;;5003389;28;20445;-60
2021/03/26 02:47:08;;;;;;;17.93;9.87;;;4.10;98.00;;;;;;5004227;28;20438;-61
2021/03/26 02:49:56;;;;;;;20.17;9.90;;;4.10;98.20;;;;;;5008506;28;20822;-60
2021/03/26 02:52:41;;;;;;;22.37;10.37;;;4.10;97.60;;;;;;5004832;28;20509;-64
2021/03/26 02:55:25;;;;;;;17.90;10.47;;;4.10;97.50;;;;;;5004888;28;20829;-61
2021/03/26 02:58:00;;;;;;;20.40;10.03;;;4.10;97.30;;;;;;5006204;28;20439;-60
2021/03/26 03:00:32;;;;;;;17.40;9.30;;;4.00;97.40;;;;;;5002278;28;20785;-62
2021/03/26 03:02:59;;;;;;;16.13;9.33;;;4.00;97.40;;;;;;5005541;28;21211;-61
2021/03/26 03:05:32;;;;;;;17.10;8.87;;;4.00;97.50;;;;;;4999632;28;20553;-60
2021/03/26 03:08:06;;;;;;;21.23;9.23;;;3.90;97.60;;;;;;5008817;28;20438;-60
2021/03/26 03:10:48;;;;;;;13.07;8.97;;;3.90;97.70;;;;;;5005926;28;20966;-59
2021/03/26 03:13:37;;;;;;;17.83;8.83;;;3.80;97.70;;;;;;5002691;28;20440;-60
2021/03/26 03:16:10;;;;;;;15.17;8.43;;;3.70;97.70;;;;;;4970334;28;20553;-61
2021/03/26 03:18:40;;;;;;;15.00;9.43;;;3.70;97.90;;;;;;5005398;28;20522;-60
2021/03/26 03:21:20;;;;;;;18.77;8.83;;;3.60;98.10;;;;;;5005110;28;20826;-60
2021/03/26 03:24:05;;;;;;;17.53;10.57;;;3.60;98.30;;;;;;5000773;28;20460;-62
2021/03/26 03:27:09;;;;;;;17.30;9.23;;;3.60;98.30;;;;;;5005873;28;20503;-60
2021/03/26 03:29:55;;;;;;;15.47;9.47;;;3.50;98.50;;;;;;4908246;29;20439;-60
2021/03/26 03:32:37;;;;;;;17.37;9.50;;;3.50;98.50;;;;;;5000031;28;20442;-60
2021/03/26 03:35:19;;;;;;;15.87;9.30;;;3.50;98.50;;;;;;5001944;28;20542;-61
2021/03/26 03:37:54;;;;;;;17.13;10.70;;;3.50;98.30;;;;;;5002716;28;20459;-60
2021/03/26 03:40:27;;;;;;;20.77;9.87;;;3.40;98.30;;;;;;5006447;28;20437;-61
2021/03/26 03:43:10;;;;;;;15.30;9.53;;;3.40;98.50;;;;;;5004559;28;20669;-61
2021/03/26 03:46:01;;;;;;;16.13;8.90;;;3.40;98.40;;;;;;5008644;28;20467;-62
2021/03/26 03:48:45;;;;;;;19.17;10.03;;;3.30;98.40;;;;;;5016539;28;20454;-61
2021/03/26 03:51:33;;;;;;;18.90;9.50;;;3.30;98.40;;;;;;5006276;28;20498;-61
2021/03/26 03:54:11;;;;;;;15.80;10.13;;;3.30;98.90;;;;;;5004559;28;20447;-60
2021/03/26 03:56:42;;;;;;;17.10;9.40;;;3.20;98.80;;;;;;5000946;28;21068;-61
2021/03/26 03:59:28;;;;;;;16.33;9.40;;;3.30;98.90;;;;;;5010009;28;20482;-61
2021/03/26 04:01:59;;;;;;;16.83;9.53;;;3.20;99.00;;;;;;4984024;28;20560;-61
2021/03/26 04:04:39;;;;;;;15.50;9.63;;;3.20;99.10;;;;;;4998279;28;20456;-61
2021/03/26 04:07:21;;;;;;;14.93;8.63;;;3.20;99.10;;;;;;4999514;28;20442;-61
2021/03/26 04:09:55;;;;;;;18.60;8.97;;;3.20;99.00;;;;;;5000869;28;20434;-61
2021/03/26 04:12:31;;;;;;;15.97;8.93;;;3.10;98.90;;;;;;4998161;28;20435;-60
2021/03/26 04:15:06;;;;;;;15.70;8.97;;;3.10;99.00;;;;;;4998930;28;20471;-61
2021/03/26 04:17:55;;;;;;;13.10;8.40;;;3.10;99.00;;;;;;5004009;28;20985;-61
2021/03/26 04:20:29;;;;;;;15.70;8.80;;;3.10;99.10;;;;;;4990876;28;20443;-61
2021/03/26 04:23:03;;;;;;;18.00;10.00;;;3.00;99.00;;;;;;5003270;28;20964;-61
2021/03/26 04:25:36;;;;;;;15.23;9.00;;;3.00;99.00;;;;;;5005837;28;20478;-61
2021/03/26 04:28:28;;;;;;;17.50;8.90;;;2.90;99.10;;;;;;5003948;28;20427;-60
2021/03/26 04:30:58;;;;;;;16.53;9.07;;;2.90;99.20;;;;;;5001931;28;20415;-60
2021/03/26 04:33:24;;;;;;;17.03;9.90;;;2.80;99.30;;;;;;5006938;28;20431;-60
2021/03/26 04:35:51;;;;;;;22.07;9.30;;;2.80;99.30;;;;;;5003976;28;21075;-60
2021/03/26 04:38:27;;;;;;;19.43;8.80;;;2.80;99.40;;;;;;5003229;28;20436;-60
2021/03/26 04:41:05;;;;;;;15.50;8.73;;;2.80;99.50;;;;;;5003115;28;20566;-60
2021/03/26 04:43:31;;;;;;;16.17;9.10;;;2.70;99.60;;;;;;4997669;28;20578;-60
2021/03/26 04:45:59;;;;;;;13.10;8.97;;;2.70;99.70;;;;;;5006502;28;20463;-60
2021/03/26 04:48:46;;;;;;;21.40;9.10;;;2.70;99.70;;;;;;5005763;28;20180;-60
2021/03/26 04:51:21;;;;;;;14.40;9.23;;;2.70;99.80;;;;;;5003357;28;20931;-60
2021/03/26 04:53:59;;;;;;;17.10;9.57;;;2.60;99.80;;;;;;5013674;28;20449;-60
2021/03/26 04:56:30;;;;;;;17.23;9.60;;;2.60;99.80;;;;;;5030069;23;20532;-62
2021/03/26 04:58:59;;;;;;;24.17;11.93;;;2.60;99.90;;;;;;5003560;28;20458;-61
2021/03/26 05:01:29;;;;;;;21.63;11.87;;;2.60;99.80;;;;;;5004083;28;20455;-59
2021/03/26 05:04:06;;;;;;;21.33;11.10;;;2.60;99.90;;;;;;5007034;28;20994;-60
2021/03/26 05:06:39;;;;;;;18.47;10.07;;;2.50;99.90;;;;;;5006884;28;20480;-60
2021/03/26 05:09:20;;;;;;;14.57;8.93;;;2.50;99.90;;;;;;5005964;28;20854;-59
2021/03/26 05:11:51;;;;;;;18.53;8.87;;;2.50;99.90;;;;;;5007059;28;20454;-62
2021/03/26 05:14:39;;;;;;;19.73;10.57;;;2.50;99.90;;;;;;5004448;28;20504;-59
2021/03/26 05:17:19;;;;;;;17.30;8.90;;;2.40;99.90;;;;;;5018878;28;20809;-59
2021/03/26 05:20:09;;;;;;;18.97;9.37;;;2.40;99.90;;;;;;4997047;28;20433;-59
2021/03/26 05:22:50;;;;;;;16.20;9.40;;;2.30;99.90;;;;;;5009628;28;20509;-59
2021/03/26 05:25:24;;;;;;;16.20;9.37;;;2.30;99.90;;;;;;5008001;28;20635;-59
2021/03/26 05:27:51;;;;;;;21.57;9.50;;;2.30;99.90;;;;;;5012376;28;20967;-61
2021/03/26 05:30:30;;;;;;;16.70;10.03;;;2.30;99.90;;;;;;5012096;28;20488;-59
2021/03/26 05:33:09;;;;;;;21.17;9.47;;;2.30;99.90;;;;;;5012333;28;20454;-61
2021/03/26 05:35:57;;;;;;;19.80;9.90;;;2.20;99.90;;;;;;5011544;28;20992;-62
2021/03/26 05:38:43;;;;;;;24.73;9.73;;;2.30;99.90;;;;;;5011152;28;20430;-61
2021/03/26 05:41:12;;;;;;;20.50;10.70;;;2.20;99.90;;;;;;5015454;28;20482;-59
2021/03/26 05:44:09;;;;;;;16.07;9.30;;;2.20;99.90;;;;;;5013463;28;20424;-58
2021/03/26 05:46:47;;;;;;;19.73;10.60;;;2.20;99.90;;;;;;4998851;28;21493;-61
2021/03/26 05:49:29;;;;;;;20.10;10.70;;;2.20;99.90;;;;;;5016542;28;21108;-55
2021/03/26 05:52:06;;;;;;;18.40;10.13;;;2.20;99.90;;;;;;4999417;28;20437;-58
2021/03/26 05:54:48;;;;;;;16.37;9.30;;;2.30;99.90;;;;;;5001901;28;20429;-60
2021/03/26 05:57:28;;;;;;;16.77;9.80;;;2.30;99.90;;;;;;5003295;28;20484;-60
2021/03/26 06:00:03;;;;;;;16.77;10.70;;;2.40;99.90;;;;;;5006636;28;20430;-61
2021/03/26 06:02:47;;;;;;;19.00;10.97;;;2.40;99.90;;;;;;5002411;28;20464;-57
2021/03/26 06:05:41;;;;;;;24.00;11.90;;;2.40;99.90;;;;;;5015304;28;20455;-56
2021/03/26 06:08:45;;;;;;;19.17;10.47;;;2.50;99.90;;;;;;5024268;28;20432;-63
2021/03/26 06:11:37;;;;;;;21.77;9.97;;;2.50;99.90;;;;;;4987953;28;20433;-60
2021/03/26 06:14:18;;;;;;;22.27;11.77;;;2.60;99.90;;;;;;5004705;28;20442;-59
2021/03/26 06:17:14;;;;;;;18.33;10.80;;;2.70;99.90;;;;;;5001633;28;20460;-57
2021/03/26 06:19:54;;;;;;;19.53;11.50;;;2.80;99.90;;;;;;5002615;28;20567;-58
2021/03/26 06:22:20;;;;;;;22.03;11.20;;;2.80;99.90;;;;;;5007555;28;20458;-56
2021/03/26 06:25:07;;;;;;;19.17;10.80;;;2.90;99.90;;;;;;5015770;28;20457;-62
2021/03/26 06:27:40;;;;;;;19.57;10.27;;;3.00;99.90;;;;;;5023961;28;20177;-61
2021/03/26 06:30:33;;;;;;;17.50;10.57;;;3.10;99.90;;;;;;5014079;28;20443;-57
2021/03/26 06:33:30;;;;;;;23.67;10.90;;;3.10;99.90;;;;;;5007006;28;20956;-57
2021/03/26 06:36:13;;;;;;;26.70;11.60;;;3.20;99.50;;;;;;5001484;28;20447;-59
2021/03/26 06:38:58;;;;;;;23.47;10.93;;;3.30;99.40;;;;;;5006899;28;20441;-55
2021/03/26 06:41:49;;;;;;;20.87;11.53;;;3.40;99.20;;;;;;5018872;28;20465;-64
2021/03/26 06:44:27;;;;;;;26.40;12.30;;;3.40;99.00;;;;;;5026529;28;20467;-61
2021/03/26 06:47:20;;;;;;;28.47;13.30;;;3.50;98.90;;;;;;5010235;28;20431;-58
2021/03/26 06:50:34;;;;;;;30.53;12.70;;;3.50;98.90;;;;;;5001132;28;20435;-57
2021/03/26 06:53:02;;;;;;;22.10;11.23;;;3.60;98.90;;;;;;5011914;28;21034;-57
2021/03/26 06:55:46;;;;;;;20.67;11.40;;;3.60;99.00;;;;;;5007815;28;20458;-58
2021/03/26 06:58:55;;;;;;;23.80;13.13;;;3.70;99.00;;;;;;5007063;28;20443;-61
2021/03/26 07:01:48;;;;;;;22.70;12.23;;;3.80;99.00;;;;;;5002395;28;20496;-58
2021/03/26 07:04:52;;;;;;;22.07;12.13;;;3.90;98.80;;;;;;5006918;28;20473;-58
2021/03/26 07:07:55;;;;;;;23.00;11.80;;;4.00;98.70;;;;;;5004482;28;20419;-59
2021/03/26 07:10:37;;;;;;;23.43;10.60;;;4.10;98.90;;;;;;5003618;28;20498;-55
2021/03/26 07:13:21;;;;;;;24.20;12.80;;;4.30;98.70;;;;;;4999439;28;20459;-58
2021/03/26 07:16:05;;;;;;;32.50;13.77;;;4.40;98.70;;;;;;5003296;28;21002;-57
2021/03/26 07:18:38;;;;;;;22.17;12.13;;;4.50;98.70;;;;;;5004053;28;20435;-57
2021/03/26 07:21:42;;;;;;;30.33;13.90;;;4.60;98.70;;;;;;5011448;28;20462;-58
2021/03/26 07:24:26;;;;;;;20.63;13.23;;;4.70;98.30;;;;;;5000604;28;20431;-57
2021/03/26 07:27:09;;;;;;;20.60;11.83;;;4.80;98.40;;;;;;5008996;28;20459;-57
2021/03/26 07:29:44;;;;;;;28.27;12.37;;;4.90;98.10;;;;;;4995286;28;21234;-56
2021/03/26 07:32:16;;;;;;;24.30;11.07;;;4.90;97.90;;;;;;4997293;28;21002;-56
2021/03/26 07:34:44;;;;;;;20.23;12.50;;;5.00;98.00;;;;;;5000304;28;20513;-56
2021/03/26 07:37:17;;;;;;;21.93;12.57;;;5.10;98.00;;;;;;4993533;28;20473;-55
2021/03/26 07:40:21;;;;;;;23.83;12.33;;;5.20;98.20;;;;;;4995610;28;20436;-57
2021/03/26 07:43:26;;;;;;;31.87;14.33;;;5.30;98.10;;;;;;5000167;28;20532;-56
2021/03/26 07:45:58;;;;;;;22.43;12.40;;;5.50;98.20;;;;;;4997312;28;20448;-55
2021/03/26 07:48:29;;;;;;;25.00;13.00;;;5.70;97.90;;;;;;5002686;28;20435;-57
2021/03/26 07:51:40;;;;;;;34.40;14.70;;;5.80;97.60;;;;;;4998786;28;20470;-57
2021/03/26 07:54:27;;;;;;;28.77;15.00;;;5.90;97.60;;;;;;4992159;28;20485;-57
2021/03/26 07:56:54;;;;;;;23.80;13.20;;;6.00;97.40;;;;;;4998500;28;21547;-56
2021/03/26 07:59:35;;;;;;;22.30;13.20;;;6.20;97.00;;;;;;4995188;28;20466;-56
2021/03/26 08:02:35;;;;;;;33.83;13.00;;;6.30;97.10;;;;;;5000987;28;20478;-56
2021/03/26 08:05:20;;;;;;;19.10;12.20;;;6.40;97.00;;;;;;5001748;28;20489;-56
2021/03/26 08:08:24;;;;;;;26.40;13.27;;;6.50;96.70;;;;;;4975281;28;20442;-57
2021/03/26 08:11:25;;;;;;;24.73;13.57;;;6.60;96.50;;;;;;5008309;28;20870;-56
2021/03/26 08:13:54;;;;;;;27.10;13.30;;;6.80;96.20;;;;;;5003810;28;20841;-56
2021/03/26 08:16:30;;;;;;;30.63;14.53;;;6.90;95.90;;;;;;5002581;28;20459;-57
2021/03/26 08:19:29;;;;;;;26.40;15.00;;;7.10;95.80;;;;;;5001653;28;20670;-57
2021/03/26 08:22:10;;;;;;;25.97;14.00;;;7.20;96.10;;;;;;5002901;28;20554;-57
2021/03/26 08:24:44;;;;;;;26.53;15.70;;;7.30;96.00;;;;;;4999101;28;20443;-57
2021/03/26 08:27:31;;;;;;;35.10;16.10;;;7.50;96.20;;;;;;5002781;28;20427;-57
2021/03/26 08:30:08;;;;;;;32.70;16.10;;;7.60;96.20;;;;;;5002664;28;20964;-57
2021/03/26 08:32:39;;;;;;;28.07;14.73;;;7.80;96.00;;;;;;4999622;28;20463;-57
2021/03/26 08:35:26;;;;;;;29.43;15.20;;;8.00;95.70;;;;;;5004039;28;20957;-56
2021/03/26 08:38:27;;;;;;;27.90;13.90;;;8.10;95.50;;;;;;5010167;28;20444;-59
2021/03/26 08:41:11;;;;;;;24.00;12.30;;;8.30;94.70;;;;;;5003228;28;20451;-59
2021/03/26 08:43:39;;;;;;;27.50;13.80;;;8.50;93.80;;;;;;5001307;28;20527;-59
2021/03/26 08:46:17;;;;;;;24.87;13.73;;;8.60;93.70;;;;;;5003717;28;20454;-57
2021/03/26 08:48:53;;;;;;;24.10;14.13;;;8.70;93.60;;;;;;5006486;28;20529;-58
2021/03/26 08:51:40;;;;;;;21.93;12.30;;;8.90;93.50;;;;;;5000879;28;20438;-58
2021/03/26 08:54:24;;;;;;;25.80;14.07;;;9.10;93.50;;;;;;4998604;28;20542;-58
2021/03/26 08:57:31;;;;;;;26.53;13.80;;;9.30;93.10;;;;;;5001150;28;20447;-60
2021/03/26 09:00:29;;;;;;;22.90;13.13;;;9.50;92.50;;;;;;5001190;28;20795;-56
2021/03/26 09:03:18;;;;;;;26.37;14.60;;;9.70;91.90;;;;;;5004593;28;20428;-61
2021/03/26 09:05:51;;;;;;;26.90;14.87;;;9.90;90.80;;;;;;5001483;28;20482;-57
2021/03/26 09:08:25;;;;;;;29.20;16.07;;;10.00;89.50;;;;;;4993124;28;20431;-61
2021/03/26 09:11:12;;;;;;;27.87;15.27;;;10.30;89.70;;;;;;5004451;28;20476;-59
2021/03/26 09:13:46;;;;;;;25.90;14.00;;;10.50;84.90;;;;;;4993756;28;20459;-60
2021/03/26 09:16:17;;;;;;;25.80;14.40;;;10.70;81.00;;;;;;5000616;28;21217;-58
2021/03/26 09:18:58;;;;;;;32.47;14.60;;;10.80;77.40;;;;;;4993205;28;20458;-58
2021/03/26 09:21:53;;;;;;;21.30;12.67;;;11.00;78.20;;;;;;4995713;28;20463;-60
2021/03/26 09:25:13;;;;;;;17.40;10.87;;;11.20;72.50;;;;;;5004566;28;20424;-59
2021/03/26 09:28:08;;;;;;;19.73;9.70;;;11.40;66.70;;;;;;4941516;28;20485;-59
2021/03/26 09:30:41;;;;;;;18.43;9.63;;;11.70;63.40;;;;;;4994936;28;20454;-59
2021/03/26 09:33:08;;;;;;;18.63;10.90;;;11.90;60.50;;;;;;4996453;28;20460;-57
2021/03/26 09:35:36;;;;;;;16.60;10.03;;;12.00;55.80;;;;;;4997274;28;20440;-61
2021/03/26 09:38:09;;;;;;;15.10;9.53;;;12.10;55.70;;;;;;5000211;28;20837;-59
2021/03/26 09:40:47;;;;;;;16.07;9.13;;;12.10;55.10;;;;;;5017793;28;20433;-60
2021/03/26 09:43:32;;;;;;;17.67;9.43;;;12.20;53.00;;;;;;5006125;28;20518;-60
2021/03/26 09:46:02;;;;;;;18.20;8.90;;;12.30;52.50;;;;;;5002164;28;20475;-57
2021/03/26 09:48:50;;;;;;;23.33;8.90;;;12.30;52.40;;;;;;5000606;28;20451;-59
2021/03/26 09:51:39;;;;;;;16.60;9.10;;;12.40;51.60;;;;;;5001324;28;20464;-56
2021/03/26 09:54:20;;;;;;;15.97;9.43;;;12.50;52.10;;;;;;4994323;28;20444;-58
2021/03/26 09:57:07;;;;;;;18.10;8.93;;;12.70;52.00;;;;;;5000624;28;20459;-58
2021/03/26 09:59:58;;;;;;;18.77;8.70;;;12.80;50.70;;;;;;4993992;28;20510;-57
2021/03/26 10:02:38;;;;;;;15.47;8.13;;;12.90;50.20;;;;;;5004597;28;20853;-55
2021/03/26 10:05:37;;;;;;;15.27;8.50;;;13.00;49.90;;;;;;4998325;28;20460;-56
2021/03/26 10:08:08;;;;;;;11.47;7.70;;;13.20;49.50;;;;;;5004740;28;20450;-56
2021/03/26 10:13:02;;;;;;;15.13;7.67;;;13.30;47.50;;;;;;5002227;28;20431;-59
2021/03/26 10:15:31;;;;;;;13.47;7.97;;;13.30;48.00;;;;;;4998521;28;20450;-58
2021/03/26 10:18:01;;;;;;;13.77;8.63;;;13.30;48.00;;;;;;5004619;28;20180;-57
2021/03/26 10:21:03;;;;;;;14.60;8.73;;;13.30;48.50;;;;;;5000024;28;20957;-58
2021/03/26 10:23:59;;;;;;;23.50;8.70;;;13.30;48.20;;;;;;4999113;28;20573;-59
2021/03/26 10:26:43;;;;;;;19.47;9.77;;;13.40;48.60;;;;;;5001374;28;20955;-57
2021/03/26 10:29:31;;;;;;;13.63;8.70;;;13.40;49.00;;;;;;5002340;28;20450;-58
2021/03/26 10:32:07;;;;;;;18.03;8.87;;;13.60;48.60;;;;;;5004614;28;20509;-60
2021/03/26 10:34:37;;;;;;;16.17;8.67;;;13.70;48.60;;;;;;5003247;28;20435;-58
2021/03/26 10:37:32;;;;;;;14.07;7.90;;;13.70;48.30;;;;;;4997678;28;20446;-57
2021/03/26 10:40:03;;;;;;;18.50;9.60;;;13.90;48.70;;;;;;4999637;28;20419;-58
2021/03/26 10:42:35;;;;;;;14.03;8.40;;;14.00;47.60;;;;;;4993674;28;20663;-57
2021/03/26 10:45:13;;;;;;;13.33;8.27;;;14.10;47.40;;;;;;4997245;28;20947;-59
2021/03/26 10:47:51;;;;;;;17.73;7.73;;;14.20;46.90;;;;;;4995611;28;20759;-58
2021/03/26 10:50:41;;;;;;;11.57;7.80;;;14.20;46.50;;;;;;5007962;28;20443;-57
2021/03/26 10:53:24;;;;;;;17.97;9.80;;;14.30;46.90;;;;;;5003947;28;20416;-57
2021/03/26 10:56:11;;;;;;;14.80;8.50;;;14.40;46.50;;;;;;5034539;22;20597;-61
2021/03/26 10:58:42;;;;;;;15.07;9.20;;;14.50;47.50;;;;;;5004036;28;20411;-61
2021/03/26 11:01:15;;;;;;;15.47;8.17;;;14.70;47.40;;;;;;5010659;28;20490;-63
2021/03/26 11:03:48;;;;;;;16.80;8.03;;;14.80;46.70;;;;;;5002663;28;20964;-63
2021/03/26 11:06:36;;;;;;;18.27;8.53;;;14.90;46.20;;;;;;5001697;28;20815;-61
2021/03/26 11:09:15;;;;;;;11.03;7.40;;;15.00;45.50;;;;;;4994292;28;20442;-63
2021/03/26 11:12:22;;;;;;;13.50;7.73;;;15.00;46.20;;;;;;5001128;28;20462;-61
2021/03/26 11:15:00;;;;;;;11.60;6.90;;;15.00;44.40;;;;;;4993650;28;20442;-61
2021/03/26 11:17:34;;;;;;;8.20;5.70;;;15.00;44.40;;;;;;5005563;28;20532;-63
2021/03/26 11:20:25;;;;;;;10.37;6.83;;;15.00;44.50;;;;;;5005402;28;20427;-61
2021/03/26 11:22:57;;;;;;;14.50;7.53;;;15.00;44.70;;;;;;5002542;28;20861;-59
2021/03/26 11:25:33;;;;;;;13.27;7.47;;;15.10;44.30;;;;;;4995135;28;20442;-60
2021/03/26 11:28:00;;;;;;;13.97;7.70;;;15.20;44.50;;;;;;5007097;28;20431;-60
2021/03/26 11:30:50;;;;;;;11.90;6.93;;;15.20;44.60;;;;;;5001270;28;20439;-64
2021/03/26 11:33:22;;;;;;;12.80;6.73;;;15.40;44.10;;;;;;4992554;28;20675;-59
2021/03/26 11:35:50;;;;;;;10.90;5.37;;;15.60;44.00;;;;;;4997437;28;20449;-62
2021/03/26 11:38:37;;;;;;;9.33;5.07;;;15.80;42.90;;;;;;5002425;28;20424;-62
2021/03/26 11:41:15;;;;;;;11.53;5.47;;;16.00;42.30;;;;;;4997482;28;20451;-62
2021/03/26 11:43:44;;;;;;;10.07;5.47;;;16.10;40.40;;;;;;4997588;28;20506;-63
2021/03/26 11:46:20;;;;;;;10.20;5.60;;;16.20;40.40;;;;;;4998036;28;20447;-61
2021/03/26 11:48:55;;;;;;;7.00;5.60;;;16.30;39.80;;;;;;4998143;28;20427;-61
2021/03/26 11:51:48;;;;;;;9.37;5.97;;;16.40;41.20;;;;;;4998448;28;20428;-62
2021/03/26 11:54:29;;;;;;;9.77;5.97;;;16.70;40.90;;;;;;4995699;28;20450;-64
2021/03/26 11:57:12;;;;;;;10.93;5.80;;;16.70;40.00;;;;;;5003026;28;20475;-62
2021/03/26 12:00:03;;;;;;;11.73;5.60;;;16.80;40.90;;;;;;4998254;28;20428;-62
2021/03/26 12:02:57;;;;;;;8.67;5.57;;;17.00;41.90;;;;;;4996146;28;20459;-62
2021/03/26 12:06:00;;;;;;;10.37;5.27;;;17.20;39.50;;;;;;4978548;28;20447;-62
2021/03/26 12:08:50;;;;;;;7.50;4.90;;;17.40;41.10;;;;;;4995578;28;20431;-62
2021/03/26 12:11:53;;;;;;;8.07;5.17;;;17.60;39.50;;;;;;4991189;28;20431;-63
2021/03/26 12:14:31;;;;;;;7.13;4.60;;;17.70;37.70;;;;;;5002711;28;20576;-62
2021/03/26 12:17:03;;;;;;;4.07;3.57;;;17.70;37.20;;;;;;5003045;28;20452;-61
2021/03/26 12:19:32;;;;;;;6.87;4.10;;;17.80;37.30;;;;;;4997060;28;21116;-63
2021/03/26 12:22:01;;;;;;;6.60;3.90;;;18.00;37.10;;;;;;5012009;28;20470;-63
2021/03/26 12:24:47;;;;;;;5.47;3.90;;;18.20;36.90;;;;;;5004233;28;20968;-62
2021/03/26 12:27:25;;;;;;;5.77;3.70;;;18.40;36.70;;;;;;5001348;28;20674;-62
2021/03/26 12:30:06;;;;;;;6.50;3.90;;;18.70;36.30;;;;;;4996869;28;20462;-62
2021/03/26 12:32:41;;;;;;;6.37;4.03;;;18.80;35.50;;;;;;4995210;28;20450;-62
2021/03/26 12:35:33;;;;;;;8.33;4.30;;;18.90;35.20;;;;;;4997237;28;20441;-64
2021/03/26 12:38:26;;;;;;;6.63;4.60;;;18.80;35.20;;;;;;4995253;28;20532;-64
2021/03/26 12:40:55;;;;;;;10.07;4.97;;;18.60;35.50;;;;;;5003336;28;20435;-62
2021/03/26 12:43:30;;;;;;;8.00;4.50;;;18.20;35.50;;;;;;4990384;28;20466;-65
2021/03/26 12:46:10;;;;;;;7.23;4.97;;;17.70;36.30;;;;;;5001667;28;20450;-62
2021/03/26 12:49:01;;;;;;;7.37;4.43;;;17.40;36.80;;;;;;5005348;28;20431;-65
2021/03/26 12:51:38;;;;;;;8.67;5.37;;;17.10;37.70;;;;;;4997927;28;20802;-62
2021/03/26 12:54:25;;;;;;;10.27;5.40;;;17.00;37.80;;;;;;5001189;28;20480;-66
2021/03/26 12:57:16;;;;;;;8.40;5.30;;;16.90;38.30;;;;;;5003829;28;20517;-63
2021/03/26 12:59:56;;;;;;;12.80;6.17;;;16.80;38.50;;;;;;5006549;28;20427;-62
2021/03/26 13:02:36;;;;;;;9.37;6.33;;;16.80;38.80;;;;;;4996912;28;20508;-63
2021/03/26 13:05:25;;;;;;;11.87;5.73;;;16.70;39.10;;;;;;4998581;28;20439;-62
2021/03/26 13:07:53;;;;;;;10.67;6.03;;;16.60;39.00;;;;;;5000068;28;20431;-62
2021/03/26 13:10:40;;;;;;;6.47;4.47;;;16.70;39.70;;;;;;4997626;28;20430;-63
2021/03/26 13:13:17;;;;;;;11.20;6.07;;;16.80;39.10;;;;;;4998328;28;20459;-64
2021/03/26 13:16:11;;;;;;;8.93;5.30;;;17.00;39.80;;;;;;5005404;28;20804;-63
2021/03/26 13:18:55;;;;;;;11.80;5.60;;;17.30;39.20;;;;;;5003665;28;20427;-63
2021/03/26 13:21:21;;;;;;;11.27;5.80;;;17.40;38.00;;;;;;4997433;28;20463;-63
2021/03/26 13:23:51;;;;;;;10.93;5.70;;;17.40;38.00;;;;;;5006513;28;20423;-62
2021/03/26 13:26:21;;;;;;;12.73;5.33;;;17.40;38.20;;;;;;5000894;28;20300;-65
2021/03/26 13:28:56;;;;;;;12.47;5.70;;;17.40;38.70;;;;;;5005301;28;20437;-63
2021/03/26 13:31:37;;;;;;;7.47;4.90;;;17.50;38.60;;;;;;5002903;28;20439;-62
2021/03/26 13:34:02;;;;;;;7.47;5.20;;;17.60;38.10;;;;;;5002859;28;20498;-65
2021/03/26 13:36:34;;;;;;;9.30;5.40;;;17.60;37.50;;;;;;5006723;28;20451;-63
2021/03/26 13:39:15;;;;;;;6.80;4.70;;;17.60;37.50;;;;;;5003083;28;20673;-64
2021/03/26 13:41:43;;;;;;;8.00;5.80;;;17.50;37.30;;;;;;5010664;28;20455;-65
2021/03/26 13:44:18;;;;;;;6.23;4.77;;;17.40;37.70;;;;;;5020722;28;20446;-63